sensor_id;sensor_type;location;lat;lon;timestamp;pressure;altitude;pressure_sealevel;temperature;humidity
41254;BME280;26987;59.928;30.306;2023-05-11T00:01:26;102174.09;;;7.49;75.28
41254;BME280;26987;59.928;30.306;2023-05-11T00:03:56;102187.00;;;7.54;75.68
41254;BME280;26987;59.928;30.306;2023-05-11T00:06:23;102181.19;;;7.59;75.68
41254;BME280;26987;59.928;30.306;2023-05-11T00:08:51;102179.69;;;7.56;75.62
41254;BME280;26987;59.928;30.306;2023-05-11T00:11:19;102181.81;;;7.52;76.41
41254;BME280;26987;59.928;30.306;2023-05-11T00:13:47;102184.63;;;7.51;76.49
41254;BME280;26987;59.928;30.306;2023-05-11T00:16:15;102184.78;;;7.49;77.30
41254;BME280;26987;59.928;30.306;2023-05-11T00:18:43;102186.59;;;7.49;77.04
41254;BME280;26987;59.928;30.306;2023-05-11T00:21:12;102182.25;;;7.48;77.09
41254;BME280;26987;59.928;30.306;2023-05-11T00:23:40;102181.41;;;7.47;77.51
41254;BME280;26987;59.928;30.306;2023-05-11T00:26:08;102190.81;;;7.51;77.72
41254;BME280;26987;59.928;30.306;2023-05-11T00:28:36;102191.09;;;7.48;77.83
41254;BME280;26987;59.928;30.306;2023-05-11T00:31:04;102191.63;;;7.52;78.19
41254;BME280;26987;59.928;30.306;2023-05-11T00:33:31;102195.59;;;7.48;79.06
41254;BME280;26987;59.928;30.306;2023-05-11T00:36:00;102186.50;;;7.40;79.21
41254;BME280;26987;59.928;30.306;2023-05-11T00:38:29;102188.03;;;7.43;79.52
41254;BME280;26987;59.928;30.306;2023-05-11T00:40:57;102193.91;;;7.47;80.00
41254;BME280;26987;59.928;30.306;2023-05-11T00:43:25;102168.56;;;7.32;79.19
41254;BME280;26987;59.928;30.306;2023-05-11T00:45:53;102195.88;;;7.44;79.29
41254;BME280;26987;59.928;30.306;2023-05-11T00:48:21;102199.56;;;7.43;78.21
41254;BME280;26987;59.928;30.306;2023-05-11T00:50:49;102190.84;;;7.41;77.66
41254;BME280;26987;59.928;30.306;2023-05-11T00:53:17;102194.53;;;7.40;77.14
41254;BME280;26987;59.928;30.306;2023-05-11T00:55:47;102202.38;;;7.42;76.45
41254;BME280;26987;59.928;30.306;2023-05-11T00:58:15;102199.72;;;7.42;76.23
41254;BME280;26987;59.928;30.306;2023-05-11T01:00:43;102196.78;;;7.35;75.29
41254;BME280;26987;59.928;30.306;2023-05-11T01:03:13;102200.59;;;7.32;75.06
41254;BME280;26987;59.928;30.306;2023-05-11T01:05:47;102168.84;;;7.11;74.49
41254;BME280;26987;59.928;30.306;2023-05-11T01:08:17;102210.28;;;7.34;73.40
41254;BME280;26987;59.928;30.306;2023-05-11T01:10:53;102212.50;;;7.38;73.16
41254;BME280;26987;59.928;30.306;2023-05-11T01:13:27;102212.28;;;7.31;72.36
41254;BME280;26987;59.928;30.306;2023-05-11T01:16:01;102213.72;;;7.26;71.74
41254;BME280;26987;59.928;30.306;2023-05-11T01:18:36;102215.09;;;7.30;71.79
41254;BME280;26987;59.928;30.306;2023-05-11T01:21:11;102210.34;;;7.24;71.06
41254;BME280;26987;59.928;30.306;2023-05-11T01:24:01;102211.03;;;7.26;70.29
41254;BME280;26987;59.928;30.306;2023-05-11T01:26:44;102207.66;;;7.24;69.65
41254;BME280;26987;59.928;30.306;2023-05-11T01:32:35;102217.34;;;7.25;67.75
41254;BME280;26987;59.928;30.306;2023-05-11T01:35:08;102176.19;;;6.99;66.32
41254;BME280;26987;59.928;30.306;2023-05-11T01:37:40;102218.50;;;7.22;65.86
41254;BME280;26987;59.928;30.306;2023-05-11T01:40:14;102223.38;;;7.27;65.25
41254;BME280;26987;59.928;30.306;2023-05-11T01:42:46;102213.84;;;7.24;65.30
41254;BME280;26987;59.928;30.306;2023-05-11T01:45:15;102222.94;;;7.31;65.31
41254;BME280;26987;59.928;30.306;2023-05-11T01:47:48;102219.84;;;7.36;64.96
41254;BME280;26987;59.928;30.306;2023-05-11T01:50:17;102220.22;;;7.41;64.69
41254;BME280;26987;59.928;30.306;2023-05-11T01:52:48;102203.81;;;7.36;64.42
41254;BME280;26987;59.928;30.306;2023-05-11T01:55:19;102220.16;;;7.51;64.16
41254;BME280;26987;59.928;30.306;2023-05-11T01:57:51;102226.44;;;7.60;63.88
41254;BME280;26987;59.928;30.306;2023-05-11T02:00:20;102229.47;;;7.65;63.47
41254;BME280;26987;59.928;30.306;2023-05-11T02:02:54;102225.59;;;7.78;63.43
41254;BME280;26987;59.928;30.306;2023-05-11T02:05:23;102223.19;;;7.85;63.18
41254;BME280;26987;59.928;30.306;2023-05-11T02:07:52;102230.09;;;7.95;62.65
41254;BME280;26987;59.928;30.306;2023-05-11T02:10:24;102230.19;;;8.04;62.59
41254;BME280;26987;59.928;30.306;2023-05-11T02:12:53;102229.94;;;8.15;62.44
41254;BME280;26987;59.928;30.306;2023-05-11T02:15:23;102233.22;;;8.27;62.50
41254;BME280;26987;59.928;30.306;2023-05-11T02:17:54;102234.34;;;8.43;62.12
41254;BME280;26987;59.928;30.306;2023-05-11T02:20:23;102233.81;;;8.57;61.73
41254;BME280;26987;59.928;30.306;2023-05-11T02:22:52;102230.53;;;8.72;60.73
41254;BME280;26987;59.928;30.306;2023-05-11T02:25:21;102234.53;;;8.94;59.87
41254;BME280;26987;59.928;30.306;2023-05-11T02:27:50;102211.84;;;9.07;58.52
41254;BME280;26987;59.928;30.306;2023-05-11T02:30:18;102235.25;;;9.40;57.98
41254;BME280;26987;59.928;30.306;2023-05-11T02:32:49;102235.97;;;9.67;56.84
41254;BME280;26987;59.928;30.306;2023-05-11T02:35:23;102207.19;;;9.69;56.41
41254;BME280;26987;59.928;30.306;2023-05-11T02:37:55;102236.88;;;10.09;55.56
41254;BME280;26987;59.928;30.306;2023-05-11T02:40:29;102233.19;;;10.52;54.09
41254;BME280;26987;59.928;30.306;2023-05-11T02:43:02;102235.41;;;11.05;52.81
41254;BME280;26987;59.928;30.306;2023-05-11T02:45:34;102239.97;;;11.36;51.54
41254;BME280;26987;59.928;30.306;2023-05-11T02:48:08;102233.53;;;11.77;50.50
41254;BME280;26987;59.928;30.306;2023-05-11T02:50:39;102229.78;;;11.86;50.38
41254;BME280;26987;59.928;30.306;2023-05-11T02:53:14;102231.63;;;11.86;50.43
41254;BME280;26987;59.928;30.306;2023-05-11T02:55:45;102231.69;;;11.78;50.16
41254;BME280;26987;59.928;30.306;2023-05-11T02:58:14;102230.59;;;11.87;50.06
41254;BME280;26987;59.928;30.306;2023-05-11T03:00:46;102229.28;;;11.83;50.24
41254;BME280;26987;59.928;30.306;2023-05-11T03:03:14;102244.19;;;11.94;50.24
41254;BME280;26987;59.928;30.306;2023-05-11T03:05:44;102245.75;;;12.11;49.88
41254;BME280;26987;59.928;30.306;2023-05-11T03:08:12;102237.94;;;12.40;48.94
41254;BME280;26987;59.928;30.306;2023-05-11T03:10:41;102244.59;;;12.98;47.50
41254;BME280;26987;59.928;30.306;2023-05-11T03:13:09;102238.75;;;13.61;45.24
41254;BME280;26987;59.928;30.306;2023-05-11T03:15:38;102244.25;;;14.41;43.40
41254;BME280;26987;59.928;30.306;2023-05-11T03:18:07;102243.25;;;15.06;41.49
41254;BME280;26987;59.928;30.306;2023-05-11T03:20:37;102250.88;;;15.44;40.17
41254;BME280;26987;59.928;30.306;2023-05-11T03:23:08;102246.56;;;15.70;39.48
41254;BME280;26987;59.928;30.306;2023-05-11T03:25:40;102253.94;;;15.97;38.71
41254;BME280;26987;59.928;30.306;2023-05-11T03:28:11;102250.59;;;16.42;37.75
41254;BME280;26987;59.928;30.306;2023-05-11T03:30:47;102254.59;;;17.26;36.18
41254;BME280;26987;59.928;30.306;2023-05-11T03:33:16;102265.34;;;18.18;34.50
41254;BME280;26987;59.928;30.306;2023-05-11T03:35:46;102256.78;;;19.02;32.49
41254;BME280;26987;59.928;30.306;2023-05-11T03:38:21;102254.16;;;19.64;31.39
41254;BME280;26987;59.928;30.306;2023-05-11T03:40:52;102260.31;;;20.38;29.77
41254;BME280;26987;59.928;30.306;2023-05-11T03:43:21;102254.03;;;20.97;28.95
41254;BME280;26987;59.928;30.306;2023-05-11T03:45:52;102256.34;;;21.47;28.08
41254;BME280;26987;59.928;30.306;2023-05-11T03:48:22;102266.09;;;21.72;27.33
41254;BME280;26987;59.928;30.306;2023-05-11T03:50:51;102263.91;;;21.57;27.31
41254;BME280;26987;59.928;30.306;2023-05-11T03:53:21;102259.44;;;21.97;26.41
41254;BME280;26987;59.928;30.306;2023-05-11T03:55:49;102255.53;;;21.92;26.12
41254;BME280;26987;59.928;30.306;2023-05-11T03:58:18;102247.94;;;21.77;25.91
41254;BME280;26987;59.928;30.306;2023-05-11T04:00:46;102257.66;;;21.73;25.56
41254;BME280;26987;59.928;30.306;2023-05-11T04:03:14;102219.41;;;21.27;25.88
41254;BME280;26987;59.928;30.306;2023-05-11T04:05:42;102259.00;;;21.41;25.38
41254;BME280;26987;59.928;30.306;2023-05-11T04:08:13;102254.06;;;21.85;25.04
41254;BME280;26987;59.928;30.306;2023-05-11T04:10:42;102260.34;;;22.20;24.44
41254;BME280;26987;59.928;30.306;2023-05-11T04:13:10;102262.38;;;22.47;23.41
41254;BME280;26987;59.928;30.306;2023-05-11T04:15:38;102261.00;;;22.84;22.67
41254;BME280;26987;59.928;30.306;2023-05-11T04:18:05;102257.88;;;22.97;22.03
41254;BME280;26987;59.928;30.306;2023-05-11T04:20:33;102255.97;;;22.98;22.54
41254;BME280;26987;59.928;30.306;2023-05-11T04:23:01;102258.91;;;23.13;22.03
41254;BME280;26987;59.928;30.306;2023-05-11T04:25:33;102263.41;;;23.25;21.97
41254;BME280;26987;59.928;30.306;2023-05-11T04:28:03;102255.97;;;22.98;21.47
41254;BME280;26987;59.928;30.306;2023-05-11T04:30:31;102250.19;;;22.94;21.39
41254;BME280;26987;59.928;30.306;2023-05-11T04:33:00;102251.06;;;22.77;21.60
41254;BME280;26987;59.928;30.306;2023-05-11T04:35:28;102252.78;;;22.61;21.76
41254;BME280;26987;59.928;30.306;2023-05-11T04:37:56;102256.97;;;22.52;21.96
41254;BME280;26987;59.928;30.306;2023-05-11T04:40:24;102250.63;;;22.63;21.69
41254;BME280;26987;59.928;30.306;2023-05-11T04:42:53;102258.69;;;23.20;21.17
41254;BME280;26987;59.928;30.306;2023-05-11T04:45:22;102257.22;;;23.57;21.14
41254;BME280;26987;59.928;30.306;2023-05-11T04:47:50;102248.03;;;23.74;20.09
41254;BME280;26987;59.928;30.306;2023-05-11T04:50:18;102244.56;;;23.84;19.63
41254;BME280;26987;59.928;30.306;2023-05-11T04:52:46;102251.50;;;23.64;19.92
41254;BME280;26987;59.928;30.306;2023-05-11T04:55:13;102243.53;;;23.90;19.18
41254;BME280;26987;59.928;30.306;2023-05-11T04:57:41;102252.03;;;23.61;19.75
41254;BME280;26987;59.928;30.306;2023-05-11T05:00:10;102252.47;;;23.80;19.60
41254;BME280;26987;59.928;30.306;2023-05-11T05:02:39;102251.91;;;24.11;19.48
41254;BME280;26987;59.928;30.306;2023-05-11T05:05:08;102259.63;;;24.14;19.63
41254;BME280;26987;59.928;30.306;2023-05-11T05:07:36;102252.50;;;24.61;18.98
41254;BME280;26987;59.928;30.306;2023-05-11T05:10:04;102252.38;;;24.40;19.10
41254;BME280;26987;59.928;30.306;2023-05-11T05:12:34;102254.38;;;24.50;19.18
41254;BME280;26987;59.928;30.306;2023-05-11T05:15:02;102252.03;;;24.26;19.92
41254;BME280;26987;59.928;30.306;2023-05-11T05:17:31;102251.75;;;24.71;19.43
41254;BME280;26987;59.928;30.306;2023-05-11T05:20:00;102255.91;;;24.84;19.22
41254;BME280;26987;59.928;30.306;2023-05-11T05:22:30;102252.81;;;24.65;19.51
41254;BME280;26987;59.928;30.306;2023-05-11T05:24:58;102252.22;;;24.63;19.40
41254;BME280;26987;59.928;30.306;2023-05-11T05:27:26;102256.03;;;24.56;20.06
41254;BME280;26987;59.928;30.306;2023-05-11T05:29:56;102246.47;;;24.64;19.71
41254;BME280;26987;59.928;30.306;2023-05-11T05:32:25;102247.50;;;25.06;19.51
41254;BME280;26987;59.928;30.306;2023-05-11T05:34:53;102246.75;;;25.27;19.52
41254;BME280;26987;59.928;30.306;2023-05-11T05:37:23;102257.16;;;25.25;19.32
41254;BME280;26987;59.928;30.306;2023-05-11T05:39:52;102252.22;;;25.32;19.34
41254;BME280;26987;59.928;30.306;2023-05-11T05:42:20;102263.03;;;25.65;18.94
41254;BME280;26987;59.928;30.306;2023-05-11T05:44:49;102262.78;;;25.66;18.72
41254;BME280;26987;59.928;30.306;2023-05-11T05:47:19;102262.94;;;25.34;19.23
41254;BME280;26987;59.928;30.306;2023-05-11T05:49:46;102250.06;;;25.44;19.13
41254;BME280;26987;59.928;30.306;2023-05-11T05:52:14;102263.78;;;25.44;18.98
41254;BME280;26987;59.928;30.306;2023-05-11T05:54:44;102264.66;;;25.61;19.09
41254;BME280;26987;59.928;30.306;2023-05-11T05:57:13;102269.06;;;25.98;19.19
41254;BME280;26987;59.928;30.306;2023-05-11T05:59:41;102266.31;;;26.03;19.33
41254;BME280;26987;59.928;30.306;2023-05-11T06:02:09;102261.09;;;25.97;19.24
41254;BME280;26987;59.928;30.306;2023-05-11T06:04:39;102264.38;;;26.25;19.36
41254;BME280;26987;59.928;30.306;2023-05-11T06:07:07;102272.38;;;26.05;19.84
41254;BME280;26987;59.928;30.306;2023-05-11T06:09:35;102270.44;;;26.22;19.93
41254;BME280;26987;59.928;30.306;2023-05-11T06:12:05;102267.41;;;26.49;20.07
41254;BME280;26987;59.928;30.306;2023-05-11T06:14:36;102271.28;;;26.06;20.67
41254;BME280;26987;59.928;30.306;2023-05-11T06:17:04;102263.19;;;25.22;21.18
41254;BME280;26987;59.928;30.306;2023-05-11T06:19:32;102268.06;;;25.04;22.10
41254;BME280;26987;59.928;30.306;2023-05-11T06:22:00;102271.41;;;25.22;21.92
41254;BME280;26987;59.928;30.306;2023-05-11T06:24:34;102264.88;;;25.33;21.54
41254;BME280;26987;59.928;30.306;2023-05-11T06:27:04;102276.19;;;25.68;21.92
41254;BME280;26987;59.928;30.306;2023-05-11T06:29:33;102274.78;;;25.55;21.90
41254;BME280;26987;59.928;30.306;2023-05-11T06:32:03;102280.03;;;25.51;22.28
41254;BME280;26987;59.928;30.306;2023-05-11T06:34:33;102259.13;;;25.35;21.99
41254;BME280;26987;59.928;30.306;2023-05-11T06:37:01;102281.66;;;25.52;22.55
41254;BME280;26987;59.928;30.306;2023-05-11T06:39:29;102278.09;;;25.47;22.79
41254;BME280;26987;59.928;30.306;2023-05-11T06:41:59;102279.34;;;25.13;23.20
41254;BME280;26987;59.928;30.306;2023-05-11T06:44:29;102277.00;;;25.53;23.08
41254;BME280;26987;59.928;30.306;2023-05-11T06:46:57;102262.91;;;25.23;23.64
41254;BME280;26987;59.928;30.306;2023-05-11T06:49:26;102282.59;;;24.99;23.90
41254;BME280;26987;59.928;30.306;2023-05-11T06:51:54;102282.56;;;24.89;24.48
41254;BME280;26987;59.928;30.306;2023-05-11T06:54:22;102284.03;;;24.59;24.98
41254;BME280;26987;59.928;30.306;2023-05-11T06:56:49;102278.09;;;23.96;25.28
41254;BME280;26987;59.928;30.306;2023-05-11T06:59:17;102283.41;;;23.53;25.77
41254;BME280;26987;59.928;30.306;2023-05-11T07:01:47;102295.59;;;23.40;26.19
41254;BME280;26987;59.928;30.306;2023-05-11T07:04:15;102295.84;;;22.71;27.14
41254;BME280;26987;59.928;30.306;2023-05-11T07:06:43;102283.75;;;22.50;27.67
41254;BME280;26987;59.928;30.306;2023-05-11T07:09:10;102268.03;;;22.05;28.06
41254;BME280;26987;59.928;30.306;2023-05-11T07:11:38;102294.75;;;22.03;28.32
41254;BME280;26987;59.928;30.306;2023-05-11T07:14:06;102297.31;;;21.64;28.86
41254;BME280;26987;59.928;30.306;2023-05-11T07:16:34;102297.41;;;21.40;28.75
41254;BME280;26987;59.928;30.306;2023-05-11T07:19:05;102297.63;;;21.50;28.99
41254;BME280;26987;59.928;30.306;2023-05-11T07:21:33;102297.81;;;21.20;29.43
41254;BME280;26987;59.928;30.306;2023-05-11T07:24:01;102296.94;;;20.90;29.76
41254;BME280;26987;59.928;30.306;2023-05-11T07:26:29;102254.63;;;20.15;30.30
41254;BME280;26987;59.928;30.306;2023-05-11T07:28:57;102297.03;;;20.23;30.64
41254;BME280;26987;59.928;30.306;2023-05-11T07:31:25;102297.59;;;20.01;30.90
41254;BME280;26987;59.928;30.306;2023-05-11T07:33:55;102298.25;;;19.66;31.40
41254;BME280;26987;59.928;30.306;2023-05-11T07:36:24;102300.72;;;19.56;31.82
41254;BME280;26987;59.928;30.306;2023-05-11T07:38:53;102290.94;;;19.17;32.42
41254;BME280;26987;59.928;30.306;2023-05-11T07:41:23;102276.19;;;18.69;32.56
41254;BME280;26987;59.928;30.306;2023-05-11T07:43:52;102282.28;;;18.64;33.12
41254;BME280;26987;59.928;30.306;2023-05-11T07:46:19;102287.66;;;18.45;33.72
41254;BME280;26987;59.928;30.306;2023-05-11T07:48:47;102288.09;;;18.42;33.23
41254;BME280;26987;59.928;30.306;2023-05-11T07:51:15;102288.91;;;18.49;33.27
41254;BME280;26987;59.928;30.306;2023-05-11T07:53:44;102282.84;;;18.47;33.05
41254;BME280;26987;59.928;30.306;2023-05-11T07:56:12;102284.56;;;18.42;33.38
41254;BME280;26987;59.928;30.306;2023-05-11T07:58:40;102284.03;;;18.33;33.44
41254;BME280;26987;59.928;30.306;2023-05-11T08:01:08;102282.22;;;18.20;33.67
41254;BME280;26987;59.928;30.306;2023-05-11T08:03:36;102271.66;;;18.05;33.81
41254;BME280;26987;59.928;30.306;2023-05-11T08:06:04;102277.09;;;18.11;34.05
41254;BME280;26987;59.928;30.306;2023-05-11T08:08:32;102277.53;;;18.01;34.33
41254;BME280;26987;59.928;30.306;2023-05-11T08:11:02;102277.50;;;18.08;34.39
41254;BME280;26987;59.928;30.306;2023-05-11T08:13:31;102276.25;;;18.11;34.49
41254;BME280;26987;59.928;30.306;2023-05-11T08:15:59;102274.88;;;17.95;34.74
41254;BME280;26987;59.928;30.306;2023-05-11T08:18:27;102271.88;;;18.03;34.78
41254;BME280;26987;59.928;30.306;2023-05-11T08:20:55;102278.78;;;18.06;34.74
41254;BME280;26987;59.928;30.306;2023-05-11T08:23:23;102282.06;;;18.14;34.97
41254;BME280;26987;59.928;30.306;2023-05-11T08:25:51;102275.19;;;18.12;34.99
41254;BME280;26987;59.928;30.306;2023-05-11T08:28:21;102271.66;;;18.05;35.01
41254;BME280;26987;59.928;30.306;2023-05-11T08:30:54;102211.38;;;17.70;35.39
41254;BME280;26987;59.928;30.306;2023-05-11T08:33:22;102271.94;;;17.96;35.43
41254;BME280;26987;59.928;30.306;2023-05-11T08:35:50;102268.44;;;17.89;35.65
41254;BME280;26987;59.928;30.306;2023-05-11T08:38:18;102261.78;;;17.85;35.30
41254;BME280;26987;59.928;30.306;2023-05-11T08:40:46;102273.78;;;18.02;35.53
41254;BME280;26987;59.928;30.306;2023-05-11T08:43:14;102264.16;;;18.07;35.49
41254;BME280;26987;59.928;30.306;2023-05-11T08:45:45;102268.28;;;18.09;35.38
41254;BME280;26987;59.928;30.306;2023-05-11T08:48:14;102270.50;;;18.26;35.27
41254;BME280;26987;59.928;30.306;2023-05-11T08:50:43;102268.78;;;18.32;34.87
41254;BME280;26987;59.928;30.306;2023-05-11T08:53:12;102256.47;;;18.29;35.04
41254;BME280;26987;59.928;30.306;2023-05-11T08:55:41;102268.53;;;18.33;34.87
41254;BME280;26987;59.928;30.306;2023-05-11T08:58:09;102267.56;;;18.27;34.83
41254;BME280;26987;59.928;30.306;2023-05-11T09:00:40;102270.28;;;18.27;34.51
41254;BME280;26987;59.928;30.306;2023-05-11T09:03:12;102257.38;;;18.23;35.08
41254;BME280;26987;59.928;30.306;2023-05-11T09:05:40;102252.78;;;18.23;34.73
41254;BME280;26987;59.928;30.306;2023-05-11T09:08:10;102260.81;;;18.37;34.53
41254;BME280;26987;59.928;30.306;2023-05-11T09:10:39;102262.41;;;18.45;34.37
41254;BME280;26987;59.928;30.306;2023-05-11T09:13:07;102268.94;;;18.37;34.20
41254;BME280;26987;59.928;30.306;2023-05-11T09:15:35;102260.03;;;18.30;33.73
41254;BME280;26987;59.928;30.306;2023-05-11T09:18:03;102256.56;;;18.22;33.89
41254;BME280;26987;59.928;30.306;2023-05-11T09:20:33;102241.16;;;18.09;33.76
41254;BME280;26987;59.928;30.306;2023-05-11T09:23:01;102255.72;;;18.22;33.15
41254;BME280;26987;59.928;30.306;2023-05-11T09:25:31;102242.00;;;18.10;33.34
41254;BME280;26987;59.928;30.306;2023-05-11T09:28:00;102254.72;;;18.16;33.18
41254;BME280;26987;59.928;30.306;2023-05-11T09:30:29;102254.59;;;18.30;33.25
41254;BME280;26987;59.928;30.306;2023-05-11T09:32:58;102251.44;;;18.33;32.72
41254;BME280;26987;59.928;30.306;2023-05-11T09:35:28;102244.41;;;18.25;32.87
41254;BME280;26987;59.928;30.306;2023-05-11T09:37:59;102247.09;;;18.50;32.14
41254;BME280;26987;59.928;30.306;2023-05-11T09:40:28;102250.31;;;18.40;31.89
41254;BME280;26987;59.928;30.306;2023-05-11T09:42:56;102237.56;;;18.41;31.46
41254;BME280;26987;59.928;30.306;2023-05-11T09:45:34;102249.16;;;18.55;31.40
41254;BME280;26987;59.928;30.306;2023-05-11T09:48:02;102239.34;;;18.28;31.10
41254;BME280;26987;59.928;30.306;2023-05-11T09:50:34;102235.09;;;18.39;31.10
41254;BME280;26987;59.928;30.306;2023-05-11T09:53:03;102234.09;;;18.34;31.02
41254;BME280;26987;59.928;30.306;2023-05-11T09:55:31;102244.13;;;18.33;30.68
41254;BME280;26987;59.928;30.306;2023-05-11T09:58:00;102246.06;;;18.26;31.16
41254;BME280;26987;59.928;30.306;2023-05-11T10:00:28;102235.59;;;18.30;31.04
41254;BME280;26987;59.928;30.306;2023-05-11T10:03:00;102224.31;;;18.33;30.82
41254;BME280;26987;59.928;30.306;2023-05-11T10:05:29;102232.22;;;18.34;30.54
41254;BME280;26987;59.928;30.306;2023-05-11T10:07:58;102236.72;;;18.40;30.23
41254;BME280;26987;59.928;30.306;2023-05-11T10:10:29;102226.84;;;18.27;30.09
41254;BME280;26987;59.928;30.306;2023-05-11T10:12:58;102234.50;;;18.37;30.31
41254;BME280;26987;59.928;30.306;2023-05-11T10:15:27;102223.22;;;18.34;29.82
41254;BME280;26987;59.928;30.306;2023-05-11T10:17:57;102235.63;;;18.48;29.78
41254;BME280;26987;59.928;30.306;2023-05-11T10:20:26;102227.03;;;18.51;29.48
41254;BME280;26987;59.928;30.306;2023-05-11T10:22:55;102237.00;;;18.58;28.85
41254;BME280;26987;59.928;30.306;2023-05-11T10:25:24;102229.25;;;18.61;28.90
41254;BME280;26987;59.928;30.306;2023-05-11T10:27:54;102230.50;;;18.59;28.65
41254;BME280;26987;59.928;30.306;2023-05-11T10:30:23;102237.22;;;18.56;28.72
41254;BME280;26987;59.928;30.306;2023-05-11T10:32:54;102226.59;;;18.55;28.73
41254;BME280;26987;59.928;30.306;2023-05-11T10:35:22;102218.13;;;18.44;28.83
41254;BME280;26987;59.928;30.306;2023-05-11T10:37:50;102206.19;;;18.26;28.90
41254;BME280;26987;59.928;30.306;2023-05-11T10:40:18;102221.41;;;18.27;28.42
41254;BME280;26987;59.928;30.306;2023-05-11T10:43:07;102207.38;;;18.31;28.67
41254;BME280;26987;59.928;30.306;2023-05-11T10:45:48;102214.78;;;18.23;28.85
41254;BME280;26987;59.928;30.306;2023-05-11T10:48:46;102220.13;;;18.30;29.06
41254;BME280;26987;59.928;30.306;2023-05-11T10:51:42;102212.06;;;18.23;29.00
41254;BME280;26987;59.928;30.306;2023-05-11T10:54:25;102221.53;;;18.14;29.29
41254;BME280;26987;59.928;30.306;2023-05-11T10:57:11;102223.00;;;18.10;28.99
41254;BME280;26987;59.928;30.306;2023-05-11T11:00:02;102224.06;;;18.09;29.14
41254;BME280;26987;59.928;30.306;2023-05-11T11:02:35;102212.03;;;17.98;28.90
41254;BME280;26987;59.928;30.306;2023-05-11T11:05:04;102220.72;;;18.07;29.04
41254;BME280;26987;59.928;30.306;2023-05-11T11:08:06;102206.44;;;18.18;28.92
41254;BME280;26987;59.928;30.306;2023-05-11T11:10:36;102217.16;;;18.13;28.93
41254;BME280;26987;59.928;30.306;2023-05-11T11:13:05;102217.38;;;18.05;29.24
41254;BME280;26987;59.928;30.306;2023-05-11T11:16:11;102217.25;;;18.25;29.42
41254;BME280;26987;59.928;30.306;2023-05-11T11:18:39;102212.06;;;18.23;29.17
41254;BME280;26987;59.928;30.306;2023-05-11T11:21:07;102216.19;;;18.26;29.37
41254;BME280;26987;59.928;30.306;2023-05-11T11:23:44;102210.56;;;18.27;29.42
41254;BME280;26987;59.928;30.306;2023-05-11T11:26:15;102205.28;;;18.33;29.40
41254;BME280;26987;59.928;30.306;2023-05-11T11:29:09;102218.00;;;18.58;29.15
41254;BME280;26987;59.928;30.306;2023-05-11T11:31:40;102214.50;;;18.50;29.12
41254;BME280;26987;59.928;30.306;2023-05-11T11:34:34;102214.81;;;18.61;29.13
41254;BME280;26987;59.928;30.306;2023-05-11T11:37:08;102207.88;;;18.46;28.74
41254;BME280;26987;59.928;30.306;2023-05-11T11:39:52;102201.53;;;18.52;28.56
41254;BME280;26987;59.928;30.306;2023-05-11T11:42:32;102193.16;;;18.35;28.29
41254;BME280;26987;59.928;30.306;2023-05-11T11:45:35;102209.66;;;18.52;28.19
41254;BME280;26987;59.928;30.306;2023-05-11T11:48:12;102208.69;;;18.47;28.04
41254;BME280;26987;59.928;30.306;2023-05-11T11:50:45;102203.66;;;18.50;27.97
41254;BME280;26987;59.928;30.306;2023-05-11T11:56:44;102194.59;;;18.57;27.95
41254;BME280;26987;59.928;30.306;2023-05-11T11:59:13;102203.72;;;18.44;27.43
41254;BME280;26987;59.928;30.306;2023-05-11T12:01:43;102199.56;;;18.41;27.23
41254;BME280;26987;59.928;30.306;2023-05-11T12:04:34;102191.59;;;18.46;27.40
41254;BME280;26987;59.928;30.306;2023-05-11T12:07:07;102156.94;;;17.97;27.72
41254;BME280;26987;59.928;30.306;2023-05-11T12:09:37;102189.81;;;18.14;27.52
41254;BME280;26987;59.928;30.306;2023-05-11T12:12:07;102201.72;;;18.07;27.68
41254;BME280;26987;59.928;30.306;2023-05-11T12:14:36;102097.69;;;17.43;28.13
41254;BME280;26987;59.928;30.306;2023-05-11T12:17:06;102190.47;;;18.03;28.14
41254;BME280;26987;59.928;30.306;2023-05-11T12:19:41;102192.31;;;18.09;28.14
41254;BME280;26987;59.928;30.306;2023-05-11T12:22:10;102194.84;;;18.11;28.09
41254;BME280;26987;59.928;30.306;2023-05-11T12:24:40;102186.50;;;18.06;28.24
41254;BME280;26987;59.928;30.306;2023-05-11T12:27:07;102180.06;;;18.00;28.37
41254;BME280;26987;59.928;30.306;2023-05-11T12:29:35;102195.09;;;18.02;28.47
41254;BME280;26987;59.928;30.306;2023-05-11T12:32:04;102194.53;;;17.94;28.71
41254;BME280;26987;59.928;30.306;2023-05-11T12:34:32;102194.66;;;17.80;28.59
41254;BME280;26987;59.928;30.306;2023-05-11T12:37:05;102203.00;;;17.78;28.66
41254;BME280;26987;59.928;30.306;2023-05-11T12:39:33;102194.75;;;17.67;28.74
41254;BME280;26987;59.928;30.306;2023-05-11T12:42:02;102201.03;;;17.60;28.88
41254;BME280;26987;59.928;30.306;2023-05-11T12:44:30;102188.56;;;17.52;28.75
41254;BME280;26987;59.928;30.306;2023-05-11T12:46:59;102181.56;;;17.38;28.76
41254;BME280;26987;59.928;30.306;2023-05-11T12:49:27;102195.13;;;17.38;29.00
41254;BME280;26987;59.928;30.306;2023-05-11T12:52:04;102195.69;;;17.47;28.75
41254;BME280;26987;59.928;30.306;2023-05-11T12:54:38;102192.41;;;17.38;28.90
41254;BME280;26987;59.928;30.306;2023-05-11T12:57:24;102149.59;;;17.14;29.08
41254;BME280;26987;59.928;30.306;2023-05-11T13:00:09;102195.06;;;17.45;28.72
41254;BME280;26987;59.928;30.306;2023-05-11T13:02:47;102193.66;;;17.35;28.70
41254;BME280;26987;59.928;30.306;2023-05-11T13:05:15;102189.78;;;17.24;28.50
41254;BME280;26987;59.928;30.306;2023-05-11T13:07:45;102191.66;;;17.24;28.94